Weather at Peachtree City Falcon Field

Public forecast

Using degrees Fahrenheit for public forecast. Weather courtesy of forecast.io.

Current aviation weather report (METAR) for Peachtree City Falcon Field

Retrieved 2020/11/29 02:53 UTC (51 minutes ago):

KFFC 290253Z AUTO 00000KT 6SM BR CLR 10/09 A3011 RMK AO2 SLP198 T01000094 50005

Closest aviation forecast (TAF) to Peachtree City Falcon Field

Closest forecast is Hartsfield Jackson Atlanta International Airport, 18.3 nm (33.8 km) NNE. Retrieved 2020-11-29 00:48 UTC (3 hours ago):

TAF KATL 282346Z 2900/3006 35008KT P6SM BKN200 FM290400 07005KT P6SM BKN250 FM290800 08005KT P6SM BKN015 FM291000 09005KT P6SM BKN006 FM291600 11007KT P6SM VCSH BKN008 FM291900 11010KT 4SM -RA BR OVC006